Time;durP1;ratioP1;P1;durP2;ratioP2;P2;SDS_P1;SDS_P2;PMS_P1;PMS_P2;Temp;Humidity;BMP_temperature;BMP_pressure;BME280_temperature;BME280_humidity;BME280_pressure;Samples;Min_cycle;Max_cycle;Signal;HPM_P1;HPM_P2
2023/04/15 00:00:16;;;;;;;6.63;4.60;;;15.50;86.50;;;;;;5013434;28;20116;-67
2023/04/15 00:02:43;;;;;;;6.72;3.90;;;15.40;86.10;;;;;;5016840;28;20026;-67
2023/04/15 00:05:08;;;;;;;5.18;4.40;;;15.40;85.90;;;;;;5015686;28;20110;-64
2023/04/15 00:07:34;;;;;;;6.80;3.80;;;15.50;86.40;;;;;;5015903;28;20101;-68
2023/04/15 00:10:00;;;;;;;4.85;3.80;;;15.50;85.90;;;;;;5016542;28;20049;-64
2023/04/15 00:12:27;;;;;;;6.10;4.03;;;15.50;85.80;;;;;;5016199;28;20033;-67
2023/04/15 00:14:53;;;;;;;5.68;3.80;;;15.40;86.10;;;;;;5015853;28;20036;-67
2023/04/15 00:17:19;;;;;;;5.85;3.72;;;15.40;85.70;;;;;;5015817;28;20105;-68
2023/04/15 00:19:44;;;;;;;6.72;3.70;;;15.40;86.00;;;;;;5015496;28;20029;-68
2023/04/15 00:22:11;;;;;;;4.80;3.53;;;15.40;86.00;;;;;;5015690;28;20022;-67
2023/04/15 00:24:37;;;;;;;4.85;3.35;;;15.40;86.00;;;;;;5015695;28;20601;-68
2023/04/15 00:27:03;;;;;;;5.90;3.38;;;15.30;86.30;;;;;;5015552;28;20061;-63
2023/04/15 00:29:29;;;;;;;6.53;3.22;;;15.40;86.20;;;;;;5015628;28;20057;-63
2023/04/15 00:31:55;;;;;;;5.82;3.50;;;15.40;86.30;;;;;;5015230;28;20026;-68
2023/04/15 00:34:22;;;;;;;4.75;3.88;;;15.40;86.50;;;;;;5015305;28;20025;-67
2023/04/15 00:36:47;;;;;;;3.60;3.25;;;15.30;86.50;;;;;;5015107;28;20483;-67
2023/04/15 00:39:13;;;;;;;5.30;3.15;;;15.30;86.80;;;;;;5015437;28;20037;-67
2023/04/15 00:41:39;;;;;;;3.28;2.92;;;15.30;87.40;;;;;;4997536;28;20030;-68
2023/04/15 00:44:05;;;;;;;5.38;3.60;;;15.30;87.50;;;;;;5015225;28;20038;-68
2023/04/15 00:46:34;;;;;;;5.50;3.13;;;15.30;88.60;;;;;;5015058;28;20494;-67
2023/04/15 00:49:00;;;;;;;3.55;3.00;;;15.30;88.40;;;;;;5014956;28;20471;-67
2023/04/15 00:51:26;;;;;;;4.13;3.10;;;15.30;88.60;;;;;;5015028;28;20498;-67
2023/04/15 00:53:51;;;;;;;3.15;2.85;;;15.30;89.60;;;;;;5015077;28;20018;-65
2023/04/15 00:56:20;;;;;;;3.17;2.70;;;15.30;89.50;;;;;;5014948;28;20454;-68
2023/04/15 00:58:46;;;;;;;6.15;3.25;;;15.20;90.40;;;;;;5015071;28;20152;-68
2023/04/15 01:01:12;;;;;;;4.38;3.28;;;15.20;90.50;;;;;;5014912;28;20030;-64
2023/04/15 01:03:38;;;;;;;5.32;3.78;;;15.20;90.30;;;;;;5014766;28;20033;-64
2023/04/15 01:06:03;;;;;;;4.70;3.30;;;15.20;90.40;;;;;;5014716;28;20065;-67
2023/04/15 01:08:29;;;;;;;5.63;3.50;;;15.20;90.70;;;;;;5014695;28;20386;-67
2023/04/15 01:11:02;;;;;;;4.82;3.28;;;15.20;91.10;;;;;;5014639;28;20034;-68
2023/04/15 01:13:28;;;;;;;4.72;3.30;;;15.20;91.30;;;;;;5014018;28;20475;-67
2023/04/15 01:15:56;;;;;;;6.35;3.58;;;15.20;91.40;;;;;;5014305;28;20376;-66
2023/04/15 01:18:22;;;;;;;3.95;3.20;;;15.20;91.40;;;;;;5013417;28;20033;-67
2023/04/15 01:20:47;;;;;;;3.35;2.63;;;15.10;91.40;;;;;;5013995;28;20352;-68
2023/04/15 01:23:13;;;;;;;4.28;3.30;;;15.10;91.40;;;;;;5014745;28;20030;-68
2023/04/15 01:25:40;;;;;;;3.47;2.90;;;15.10;91.60;;;;;;5014646;28;20021;-67
2023/04/15 01:28:08;;;;;;;3.20;2.63;;;15.10;91.70;;;;;;5014308;28;20022;-63
2023/04/15 01:30:34;;;;;;;3.13;2.80;;;15.10;91.90;;;;;;5014347;28;20040;-67
2023/04/15 01:33:00;;;;;;;4.60;3.08;;;15.10;91.80;;;;;;5014225;28;20021;-68
2023/04/15 01:35:25;;;;;;;3.13;2.83;;;15.00;91.60;;;;;;5014245;28;20426;-63
2023/04/15 01:37:53;;;;;;;5.90;2.97;;;15.10;92.10;;;;;;5014069;28;20026;-68
2023/04/15 01:40:19;;;;;;;2.60;2.40;;;15.10;92.00;;;;;;5014372;28;20065;-68
2023/04/15 01:42:45;;;;;;;4.90;3.03;;;15.00;92.20;;;;;;5014249;28;20053;-67
2023/04/15 01:45:12;;;;;;;4.03;2.13;;;15.00;92.30;;;;;;5013856;28;20022;-68
2023/04/15 01:47:38;;;;;;;4.15;2.80;;;15.00;92.20;;;;;;4996388;28;20022;-68
2023/04/15 01:50:04;;;;;;;3.40;2.53;;;15.00;92.00;;;;;;5014003;28;20475;-68
2023/04/15 01:52:29;;;;;;;4.53;2.70;;;15.00;92.10;;;;;;4996372;28;20065;-67
2023/04/15 01:54:55;;;;;;;4.22;2.38;;;15.00;92.10;;;;;;5013870;28;20116;-67
2023/04/15 01:57:20;;;;;;;3.42;3.00;;;14.90;92.20;;;;;;4996322;28;20038;-68
2023/04/15 01:59:46;;;;;;;4.40;2.30;;;15.00;92.30;;;;;;5013447;28;20061;-67
2023/04/15 02:02:11;;;;;;;4.13;2.72;;;14.90;92.20;;;;;;5013959;28;20097;-68
2023/04/15 02:04:37;;;;;;;3.28;2.40;;;14.90;91.90;;;;;;5013645;28;20041;-68
2023/04/15 02:07:02;;;;;;;4.63;2.58;;;14.90;91.80;;;;;;5013676;28;20026;-69
2023/04/15 02:09:28;;;;;;;3.70;2.55;;;14.90;91.60;;;;;;5013483;28;20479;-68
2023/04/15 02:11:55;;;;;;;3.55;2.53;;;14.90;91.60;;;;;;5013748;28;20546;-67
2023/04/15 02:14:21;;;;;;;2.72;2.40;;;14.80;91.60;;;;;;5013311;28;20414;-65
2023/04/15 02:16:46;;;;;;;4.40;2.40;;;14.80;91.80;;;;;;5013405;28;20537;-67
2023/04/15 02:19:12;;;;;;;4.38;3.10;;;14.80;92.00;;;;;;5013550;28;20487;-68
2023/04/15 02:21:38;;;;;;;6.53;2.60;;;14.80;92.00;;;;;;5013538;28;20041;-69
2023/04/15 02:24:04;;;;;;;3.85;2.53;;;14.80;92.20;;;;;;5013376;28;20383;-67
2023/04/15 02:26:32;;;;;;;2.97;2.58;;;14.80;92.30;;;;;;5013148;28;20037;-67
2023/04/15 02:28:58;;;;;;;2.47;2.00;;;14.80;92.40;;;;;;5013177;28;20071;-67
2023/04/15 02:31:24;;;;;;;5.13;2.67;;;14.70;92.20;;;;;;5013439;28;20104;-68
2023/04/15 02:33:49;;;;;;;2.72;2.20;;;14.80;92.20;;;;;;5012631;28;20033;-68
2023/04/15 02:36:15;;;;;;;4.35;2.90;;;14.70;92.40;;;;;;5013428;28;20044;-68
2023/04/15 02:38:41;;;;;;;6.35;2.53;;;14.70;92.30;;;;;;5013007;28;20030;-67
2023/04/15 02:41:09;;;;;;;2.65;2.40;;;14.70;92.80;;;;;;5013251;28;20052;-64
2023/04/15 02:43:34;;;;;;;2.80;2.40;;;14.70;92.20;;;;;;5013101;28;20441;-67
2023/04/15 02:46:00;;;;;;;3.50;2.58;;;14.70;92.30;;;;;;5013100;28;20022;-68
2023/04/15 02:48:26;;;;;;;3.38;2.58;;;14.70;92.30;;;;;;5012942;28;20022;-68
2023/04/15 02:50:51;;;;;;;3.90;2.60;;;14.70;92.40;;;;;;5012937;28;20021;-67
2023/04/15 02:53:18;;;;;;;3.33;2.70;;;14.70;92.40;;;;;;5013227;28;20046;-68
2023/04/15 02:55:44;;;;;;;3.28;2.70;;;14.70;92.50;;;;;;5012902;28;20142;-68
2023/04/15 02:58:09;;;;;;;4.35;2.83;;;14.60;92.50;;;;;;5012807;28;20452;-68
2023/04/15 03:00:35;;;;;;;4.43;2.80;;;14.60;92.50;;;;;;5012631;28;20475;-68
2023/04/15 03:03:05;;;;;;;3.80;2.92;;;14.60;92.50;;;;;;5012900;28;20036;-68
2023/04/15 03:05:30;;;;;;;3.33;2.97;;;14.60;92.60;;;;;;5012247;28;20076;-68
2023/04/15 03:07:56;;;;;;;3.15;2.70;;;14.60;92.60;;;;;;5012867;28;20014;-68
2023/04/15 03:10:22;;;;;;;3.20;2.90;;;14.60;92.70;;;;;;5012774;28;20033;-68
2023/04/15 03:12:48;;;;;;;4.38;2.90;;;14.60;92.80;;;;;;5012620;28;20045;-68
2023/04/15 03:15:15;;;;;;;4.05;3.03;;;14.50;92.90;;;;;;5012611;28;20084;-68
2023/04/15 03:17:41;;;;;;;4.22;2.90;;;14.50;92.90;;;;;;5012632;28;20390;-68
2023/04/15 03:20:07;;;;;;;4.28;2.83;;;14.50;92.90;;;;;;5012567;28;20021;-68
2023/04/15 03:22:33;;;;;;;4.63;2.58;;;14.50;93.00;;;;;;5012828;28;20026;-67
2023/04/15 03:24:58;;;;;;;4.32;3.05;;;14.50;93.10;;;;;;5012678;28;20026;-68
2023/04/15 03:27:24;;;;;;;4.55;3.30;;;14.50;93.20;;;;;;5012452;28;20034;-68
2023/04/15 03:29:50;;;;;;;3.63;2.72;;;14.50;93.20;;;;;;5012565;28;20483;-68
2023/04/15 03:32:16;;;;;;;4.43;3.13;;;14.50;93.40;;;;;;5013326;28;20399;-67
2023/04/15 03:34:42;;;;;;;4.82;3.58;;;14.50;93.50;;;;;;5025354;28;20026;-68
2023/04/15 03:37:08;;;;;;;5.90;3.15;;;14.50;93.50;;;;;;5020636;28;20525;-67
2023/04/15 03:39:34;;;;;;;5.78;2.97;;;14.50;93.60;;;;;;5014130;28;20026;-68
2023/04/15 03:42:00;;;;;;;5.35;3.00;;;14.40;93.50;;;;;;5015440;28;20030;-67
2023/04/15 03:44:26;;;;;;;4.30;3.13;;;14.40;93.50;;;;;;5016537;28;20030;-67
2023/04/15 03:46:52;;;;;;;5.93;3.10;;;14.40;93.50;;;;;;5016163;28;20030;-68
2023/04/15 03:49:18;;;;;;;4.47;3.60;;;14.40;93.50;;;;;;5016436;28;20073;-67
2023/04/15 03:51:44;;;;;;;9.05;3.70;;;14.40;93.30;;;;;;5016316;28;20037;-67
2023/04/15 03:54:10;;;;;;;6.00;3.60;;;14.40;93.30;;;;;;5016384;28;20026;-68
2023/04/15 03:56:36;;;;;;;5.97;3.53;;;14.40;93.50;;;;;;5015602;28;20042;-68
2023/04/15 03:59:02;;;;;;;5.05;3.15;;;14.40;93.60;;;;;;5016349;28;20136;-68
2023/04/15 04:01:27;;;;;;;4.72;2.85;;;14.40;93.50;;;;;;5015979;28;20022;-67
2023/04/15 04:03:53;;;;;;;4.38;3.15;;;14.40;93.50;;;;;;5015917;28;20018;-68
2023/04/15 04:06:19;;;;;;;6.55;3.60;;;14.40;93.60;;;;;;5015978;28;20101;-68
2023/04/15 04:08:45;;;;;;;5.57;3.55;;;14.40;93.50;;;;;;5015918;28;20494;-68
2023/04/15 04:11:10;;;;;;;5.15;3.45;;;14.40;93.50;;;;;;5015580;28;20029;-67
2023/04/15 04:13:36;;;;;;;5.45;3.20;;;14.40;93.70;;;;;;5015885;28;20030;-64
2023/04/15 04:16:03;;;;;;;8.05;3.30;;;14.40;93.50;;;;;;5015524;28;20061;-68
2023/04/15 04:18:30;;;;;;;9.73;3.90;;;14.30;93.60;;;;;;5016082;28;20022;-67
2023/04/15 04:20:55;;;;;;;6.85;3.53;;;14.30;93.50;;;;;;5015878;28;20438;-67
2023/04/15 04:23:21;;;;;;;4.47;3.72;;;14.30;93.10;;;;;;5015915;28;20021;-65
2023/04/15 04:25:47;;;;;;;8.32;4.00;;;14.30;93.00;;;;;;5015168;28;20390;-68
2023/04/15 04:28:12;;;;;;;7.00;4.30;;;14.30;92.60;;;;;;5015654;28;20018;-64
2023/04/15 04:30:38;;;;;;;6.18;3.65;;;14.20;92.60;;;;;;5015666;28;20083;-65
2023/04/15 04:33:04;;;;;;;8.15;4.15;;;14.20;92.70;;;;;;5015496;28;20092;-68
2023/04/15 04:35:29;;;;;;;7.72;4.10;;;14.20;92.80;;;;;;5015344;28;20446;-64
2023/04/15 04:37:55;;;;;;;8.10;4.07;;;14.20;93.10;;;;;;5015475;28;20022;-67
2023/04/15 04:40:21;;;;;;;7.35;3.75;;;14.20;93.40;;;;;;5015051;28;20021;-68
2023/04/15 04:42:46;;;;;;;6.72;4.20;;;14.20;93.60;;;;;;5015249;28;20061;-64
2023/04/15 04:45:12;;;;;;;6.85;4.28;;;14.20;93.80;;;;;;5015389;28;20060;-68
2023/04/15 04:47:37;;;;;;;7.43;4.88;;;14.20;93.30;;;;;;5013930;28;20025;-68
2023/04/15 04:50:03;;;;;;;9.18;4.03;;;14.20;92.70;;;;;;5014978;28;20442;-68
2023/04/15 04:52:29;;;;;;;7.57;4.03;;;14.20;92.40;;;;;;5015155;28;20076;-68
2023/04/15 04:54:55;;;;;;;8.20;4.85;;;14.20;92.70;;;;;;5014734;28;20033;-68
2023/04/15 04:57:20;;;;;;;8.18;4.65;;;14.10;92.10;;;;;;5015066;28;20049;-66
2023/04/15 04:59:46;;;;;;;6.72;4.05;;;14.20;92.40;;;;;;5014810;28;20537;-68
2023/04/15 05:02:11;;;;;;;7.85;4.07;;;14.20;91.90;;;;;;5031411;28;20483;-68
2023/04/15 05:04:37;;;;;;;5.88;3.50;;;14.10;91.80;;;;;;5034817;28;20386;-68
2023/04/15 05:07:03;;;;;;;4.65;3.72;;;14.20;91.20;;;;;;5033672;28;20053;-67
2023/04/15 05:09:31;;;;;;;8.38;4.45;;;14.10;91.30;;;;;;5034103;28;20520;-67
2023/04/15 05:11:56;;;;;;;7.20;4.40;;;14.10;91.70;;;;;;5034595;28;20061;-67
2023/04/15 05:14:22;;;;;;;8.38;4.47;;;14.20;91.60;;;;;;5034654;28;20095;-64
2023/04/15 05:16:47;;;;;;;7.45;4.18;;;14.10;92.00;;;;;;5034576;28;20041;-67
2023/04/15 05:19:13;;;;;;;8.18;4.20;;;14.10;92.20;;;;;;5034580;28;20495;-67
2023/04/15 05:21:38;;;;;;;9.07;4.47;;;14.10;92.30;;;;;;5034429;28;20483;-67
2023/04/15 05:24:05;;;;;;;7.38;4.50;;;14.10;92.50;;;;;;5033969;28;20079;-67
2023/04/15 05:26:30;;;;;;;7.68;3.88;;;14.10;92.60;;;;;;5034592;28;20387;-68
2023/04/15 05:28:56;;;;;;;7.07;3.83;;;14.10;92.50;;;;;;5034276;28;20022;-67
2023/04/15 05:31:22;;;;;;;6.47;4.03;;;14.10;92.40;;;;;;5034427;28;20045;-67
2023/04/15 05:33:47;;;;;;;7.70;4.53;;;14.10;91.90;;;;;;5034229;28;20033;-64
2023/04/15 05:36:13;;;;;;;9.88;4.20;;;14.10;92.10;;;;;;5033917;28;20037;-68
2023/04/15 05:38:38;;;;;;;10.85;4.78;;;14.10;92.00;;;;;;5033662;28;20013;-68
2023/04/15 05:41:04;;;;;;;8.00;4.78;;;14.10;91.90;;;;;;5033978;28;20486;-67
2023/04/15 05:43:30;;;;;;;7.63;4.35;;;14.10;91.80;;;;;;5033856;28;20578;-67
2023/04/15 05:45:55;;;;;;;12.57;4.95;;;14.10;91.80;;;;;;5034136;28;20533;-68
2023/04/15 05:48:21;;;;;;;9.85;4.97;;;14.00;91.80;;;;;;5033801;28;20021;-65
2023/04/15 05:50:47;;;;;;;9.07;5.10;;;14.10;91.90;;;;;;5033828;28;20104;-64
2023/04/15 05:53:12;;;;;;;8.05;4.80;;;14.10;92.00;;;;;;5033537;28;20018;-69
2023/04/15 05:55:38;;;;;;;9.93;5.10;;;14.00;91.90;;;;;;5033769;28;20073;-68
2023/04/15 05:58:03;;;;;;;10.10;4.70;;;14.00;92.00;;;;;;5033155;28;20079;-65
2023/04/15 06:00:30;;;;;;;5.80;4.57;;;14.00;91.90;;;;;;5033717;28;20446;-66
2023/04/15 06:02:56;;;;;;;9.52;5.13;;;14.00;91.90;;;;;;5033550;28;20410;-68
2023/04/15 06:05:22;;;;;;;8.57;5.50;;;14.00;92.10;;;;;;5033715;28;20021;-65
2023/04/15 06:07:49;;;;;;;7.00;4.55;;;14.00;91.90;;;;;;5033279;28;20040;-67
2023/04/15 06:10:14;;;;;;;7.80;4.57;;;14.00;91.80;;;;;;5033410;28;20026;-67
2023/04/15 06:12:40;;;;;;;8.20;5.03;;;14.00;91.60;;;;;;5033912;28;20108;-67
2023/04/15 06:15:08;;;;;;;7.25;5.38;;;14.00;91.30;;;;;;5033378;28;20121;-65
2023/04/15 06:17:34;;;;;;;7.50;5.28;;;14.00;91.20;;;;;;5033438;28;20064;-65
2023/04/15 06:19:59;;;;;;;7.95;5.32;;;14.00;91.10;;;;;;5033313;28;20067;-68
2023/04/15 06:22:25;;;;;;;7.55;4.95;;;14.00;91.00;;;;;;5032850;28;20028;-66
2023/04/15 06:24:51;;;;;;;10.00;5.57;;;14.00;90.60;;;;;;5033266;28;20028;-68
2023/04/15 06:27:16;;;;;;;8.68;5.82;;;14.00;91.00;;;;;;5033091;28;20040;-68
2023/04/15 06:29:42;;;;;;;9.48;6.07;;;14.00;90.60;;;;;;5033210;28;20148;-68
2023/04/15 06:32:08;;;;;;;10.20;5.85;;;14.00;90.70;;;;;;5033074;28;20025;-68
2023/04/15 06:34:33;;;;;;;11.77;6.78;;;14.00;90.50;;;;;;5033473;28;20018;-66
2023/04/15 06:37:00;;;;;;;12.57;6.90;;;14.10;90.40;;;;;;5032747;28;20558;-68
2023/04/15 06:39:26;;;;;;;10.95;7.40;;;14.10;90.40;;;;;;5032986;28;20097;-67
2023/04/15 06:41:52;;;;;;;9.65;7.40;;;14.10;90.10;;;;;;5033006;28;20516;-67
2023/04/15 06:44:17;;;;;;;10.57;7.47;;;14.10;90.10;;;;;;5032631;28;20483;-68
2023/04/15 06:46:43;;;;;;;12.30;8.27;;;14.10;90.10;;;;;;5032738;28;20025;-64
2023/04/15 06:49:10;;;;;;;14.27;8.63;;;14.10;89.50;;;;;;5032766;28;20029;-68
2023/04/15 06:51:36;;;;;;;12.32;8.55;;;14.20;89.10;;;;;;5032757;28;20063;-66
2023/04/15 06:54:04;;;;;;;12.88;8.85;;;14.20;89.20;;;;;;5032652;28;20430;-67
2023/04/15 06:56:31;;;;;;;11.27;8.75;;;14.10;89.40;;;;;;5032353;28;20033;-67
2023/04/15 06:58:56;;;;;;;15.48;10.25;;;14.10;89.30;;;;;;5032833;28;20032;-68
2023/04/15 07:01:22;;;;;;;11.63;8.40;;;14.20;88.80;;;;;;5032682;28;20030;-68
2023/04/15 07:03:47;;;;;;;11.85;9.88;;;14.20;89.10;;;;;;5031326;28;20021;-68
2023/04/15 07:06:13;;;;;;;12.05;9.52;;;14.20;89.10;;;;;;5030800;28;20030;-66
2023/04/15 07:08:39;;;;;;;15.15;9.05;;;14.20;89.10;;;;;;5031583;28;20021;-67
2023/04/15 07:11:05;;;;;;;12.70;9.35;;;14.30;89.60;;;;;;5031331;28;20029;-66
2023/04/15 07:13:31;;;;;;;10.65;9.30;;;14.30;88.40;;;;;;5032526;28;20398;-65
2023/04/15 07:15:57;;;;;;;13.57;9.38;;;14.30;88.20;;;;;;5032146;28;20033;-65
2023/04/15 07:18:23;;;;;;;15.00;9.68;;;14.40;87.40;;;;;;5032280;28;20029;-67
2023/04/15 07:20:48;;;;;;;10.30;9.20;;;14.40;87.70;;;;;;5030214;28;20065;-67
2023/04/15 07:23:14;;;;;;;13.70;9.55;;;14.50;87.70;;;;;;5027699;28;20026;-67
2023/04/15 07:25:40;;;;;;;12.65;8.85;;;14.50;87.50;;;;;;5010731;28;20037;-65
2023/04/15 07:28:05;;;;;;;11.52;9.20;;;14.50;88.00;;;;;;5011105;28;20022;-66
2023/04/15 07:30:31;;;;;;;12.75;9.02;;;14.60;87.60;;;;;;5012381;28;20499;-66
2023/04/15 07:32:57;;;;;;;12.18;9.32;;;14.70;86.70;;;;;;5012334;28;20021;-65
2023/04/15 07:35:24;;;;;;;16.40;9.52;;;14.70;86.70;;;;;;5011680;28;20077;-67
2023/04/15 07:37:51;;;;;;;12.80;9.07;;;14.70;87.40;;;;;;5026299;28;20026;-66
2023/04/15 07:40:17;;;;;;;13.07;9.85;;;14.80;87.60;;;;;;5026228;28;20850;-66
2023/04/15 07:42:43;;;;;;;15.35;10.07;;;14.80;87.40;;;;;;5029707;28;20059;-65
2023/04/15 07:45:09;;;;;;;10.18;8.60;;;14.90;86.80;;;;;;5014859;28;20569;-66
2023/04/15 07:47:35;;;;;;;12.38;8.60;;;14.90;86.80;;;;;;5008327;28;20498;-66
2023/04/15 07:50:01;;;;;;;13.38;9.20;;;14.90;86.60;;;;;;5024712;28;20030;-67
2023/04/15 07:52:26;;;;;;;14.23;9.15;;;14.90;86.60;;;;;;5027830;28;20421;-65
2023/04/15 07:54:52;;;;;;;13.65;9.55;;;15.00;87.40;;;;;;5030305;28;20022;-65
2023/04/15 07:57:18;;;;;;;11.45;8.73;;;15.00;87.10;;;;;;5030917;28;20033;-66
2023/04/15 07:59:43;;;;;;;12.32;9.35;;;15.10;86.70;;;;;;5017747;28;20079;-66
2023/04/15 08:02:10;;;;;;;11.95;9.90;;;15.00;86.60;;;;;;5008782;28;20415;-66
2023/04/15 08:04:36;;;;;;;11.77;9.93;;;14.50;87.50;;;;;;5019866;28;20036;-65
2023/04/15 08:07:03;;;;;;;12.05;9.73;;;14.20;88.70;;;;;;5030458;28;20029;-65
2023/04/15 08:09:28;;;;;;;12.02;9.95;;;13.90;89.50;;;;;;5031934;28;20101;-66
2023/04/15 08:11:55;;;;;;;14.73;10.43;;;13.90;89.50;;;;;;5023233;28;20069;-65
2023/04/15 08:14:21;;;;;;;12.45;9.73;;;14.00;90.00;;;;;;5018088;28;20026;-64
2023/04/15 08:16:46;;;;;;;13.50;10.02;;;14.00;89.90;;;;;;5023548;28;20410;-65
2023/04/15 08:19:12;;;;;;;13.88;9.32;;;14.10;88.70;;;;;;5005962;28;20045;-67
2023/04/15 08:21:37;;;;;;;13.40;9.55;;;14.10;88.90;;;;;;5023982;28;20362;-65
2023/04/15 08:24:03;;;;;;;13.93;9.43;;;14.10;89.00;;;;;;5027908;28;20026;-65
2023/04/15 08:26:29;;;;;;;12.18;8.55;;;14.20;88.00;;;;;;4994302;28;20029;-67
2023/04/15 08:28:54;;;;;;;13.65;8.32;;;14.20;87.80;;;;;;5020758;28;20127;-64
2023/04/15 08:31:20;;;;;;;13.13;9.13;;;14.30;87.20;;;;;;5021635;28;20028;-67
2023/04/15 08:33:46;;;;;;;13.75;9.02;;;14.20;86.90;;;;;;5014603;28;20437;-65
2023/04/15 08:36:12;;;;;;;10.75;8.70;;;14.30;87.20;;;;;;5023762;28;20033;-65
2023/04/15 08:38:38;;;;;;;11.30;8.80;;;14.30;87.30;;;;;;5031824;28;20497;-67
2023/04/15 08:41:19;;;;;;;11.68;8.13;;;14.40;86.70;;;;;;5026206;28;20033;-66
2023/04/15 08:43:57;;;;;;;14.43;8.82;;;14.40;86.10;;;;;;5025993;28;20113;-67
2023/04/15 08:46:23;;;;;;;12.00;8.40;;;14.30;86.00;;;;;;5027247;28;20061;-65
2023/04/15 08:48:49;;;;;;;11.45;8.57;;;14.40;87.50;;;;;;5033432;28;20045;-66
2023/04/15 08:51:16;;;;;;;12.05;9.32;;;14.40;86.90;;;;;;5015753;28;20485;-65
2023/04/15 08:53:43;;;;;;;10.02;8.38;;;14.50;87.00;;;;;;5033211;28;20064;-66
2023/04/15 08:56:11;;;;;;;12.52;8.15;;;14.60;86.70;;;;;;5032029;28;20453;-67
2023/04/15 08:58:37;;;;;;;10.13;8.75;;;14.70;86.00;;;;;;5017213;28;20072;-66
2023/04/15 09:01:03;;;;;;;12.07;8.95;;;14.70;85.20;;;;;;5014156;28;20030;-67
2023/04/15 09:03:29;;;;;;;11.10;7.97;;;14.70;86.10;;;;;;5017166;28;20498;-66
2023/04/15 09:05:56;;;;;;;13.63;7.45;;;14.70;85.60;;;;;;5034454;28;20509;-67
2023/04/15 09:08:21;;;;;;;7.85;6.57;;;14.70;84.60;;;;;;5030889;28;20417;-65
2023/04/15 09:10:47;;;;;;;7.38;5.88;;;14.70;83.80;;;;;;5033278;28;20025;-66
2023/04/15 09:13:13;;;;;;;8.23;6.40;;;14.50;82.70;;;;;;5033926;28;20494;-66
2023/04/15 09:15:39;;;;;;;8.90;5.32;;;14.60;83.00;;;;;;5034213;28;20049;-66
2023/04/15 09:18:05;;;;;;;9.13;6.07;;;14.60;81.60;;;;;;5034210;28;20075;-66
2023/04/15 09:20:41;;;;;;;6.82;6.13;;;14.60;83.10;;;;;;5016419;28;20440;-67
2023/04/15 09:23:14;;;;;;;9.93;6.57;;;14.50;83.90;;;;;;5034281;28;20017;-67
2023/04/15 09:25:41;;;;;;;8.10;5.53;;;14.70;85.40;;;;;;5034458;28;20025;-67
2023/04/15 09:28:07;;;;;;;6.55;3.88;;;14.80;82.80;;;;;;5032978;28;20036;-67
2023/04/15 09:30:33;;;;;;;5.22;3.53;;;14.90;81.80;;;;;;5030179;28;20025;-66
2023/04/15 09:33:01;;;;;;;8.27;3.40;;;14.90;79.70;;;;;;5030382;28;20053;-66
2023/04/15 09:35:27;;;;;;;6.20;3.50;;;14.80;76.80;;;;;;5034134;28;20494;-67
2023/04/15 09:38:04;;;;;;;6.40;4.20;;;14.70;77.70;;;;;;5031768;28;20030;-67
2023/04/15 09:40:40;;;;;;;6.20;5.20;;;14.70;79.60;;;;;;5033518;28;20537;-66
2023/04/15 09:43:08;;;;;;;5.78;3.60;;;14.60;82.60;;;;;;5033315;28;20120;-67
2023/04/15 09:45:35;;;;;;;7.80;4.45;;;14.60;82.80;;;;;;5032008;28;20036;-66
2023/04/15 09:48:30;;;;;;;8.30;3.78;;;14.70;79.40;;;;;;5023146;28;20021;-66
2023/04/15 09:50:59;;;;;;;4.30;3.90;;;14.70;79.70;;;;;;5033340;28;20487;-67
2023/04/15 09:53:25;;;;;;;6.30;4.60;;;14.70;79.80;;;;;;5033388;28;20036;-67
2023/04/15 09:55:53;;;;;;;7.40;4.18;;;14.80;81.00;;;;;;5032855;28;20052;-67
2023/04/15 09:58:22;;;;;;;5.50;3.35;;;14.80;80.10;;;;;;5013043;28;20379;-67
2023/04/15 10:00:49;;;;;;;7.40;5.22;;;14.80;82.50;;;;;;5017066;28;20126;-67
2023/04/15 10:03:29;;;;;;;5.20;3.10;;;14.80;82.10;;;;;;5028569;28;20124;-66
2023/04/15 10:05:58;;;;;;;5.15;3.58;;;14.70;76.80;;;;;;5014117;28;20034;-66
2023/04/15 10:08:27;;;;;;;5.72;3.05;;;14.70;76.20;;;;;;5010032;28;20034;-66
2023/04/15 10:10:53;;;;;;;5.47;3.83;;;14.80;78.10;;;;;;5003649;28;20435;-67
2023/04/15 10:13:32;;;;;;;5.47;3.00;;;14.80;77.80;;;;;;5004797;28;20446;-66
2023/04/15 10:16:13;;;;;;;4.00;2.83;;;14.70;74.60;;;;;;5029118;28;20064;-67
2023/04/15 10:18:42;;;;;;;5.13;3.17;;;14.70;74.60;;;;;;5018724;28;20028;-65
2023/04/15 10:21:08;;;;;;;6.88;3.80;;;14.60;72.90;;;;;;4998833;28;20029;-66
2023/04/15 10:23:34;;;;;;;10.13;3.97;;;14.60;76.60;;;;;;5011964;28;20029;-67
2023/04/15 10:26:01;;;;;;;6.43;4.72;;;14.70;78.80;;;;;;5028871;28;20021;-67
2023/04/15 10:28:27;;;;;;;5.18;3.92;;;14.70;79.00;;;;;;5031672;28;20490;-67
2023/04/15 10:30:53;;;;;;;5.10;3.88;;;14.60;77.10;;;;;;5032912;28;20060;-66
2023/04/15 10:33:21;;;;;;;5.15;4.10;;;14.70;78.70;;;;;;5033084;28;20033;-66
2023/04/15 10:35:49;;;;;;;6.55;3.00;;;14.80;79.90;;;;;;5031356;28;20479;-66
2023/04/15 10:38:30;;;;;;;4.72;3.22;;;15.00;78.90;;;;;;5032949;28;20079;-67
2023/04/15 10:41:14;;;;;;;3.83;2.67;;;15.00;74.40;;;;;;5031793;28;20032;-67
2023/04/15 10:43:46;;;;;;;3.75;2.22;;;15.00;70.20;;;;;;5032275;28;20099;-67
2023/04/15 10:46:12;;;;;;;3.58;2.60;;;14.90;69.40;;;;;;5032346;28;20052;-67
2023/04/15 10:48:38;;;;;;;2.88;2.58;;;15.00;69.00;;;;;;5032126;28;20026;-64
2023/04/15 10:51:04;;;;;;;4.78;2.80;;;14.90;67.30;;;;;;5023317;28;20399;-65
2023/04/15 10:53:30;;;;;;;2.50;1.80;;;14.90;68.60;;;;;;5018974;28;21539;-66
2023/04/15 10:55:57;;;;;;;3.92;2.45;;;14.80;68.10;;;;;;5017041;28;20491;-65
2023/04/15 10:58:24;;;;;;;4.32;2.80;;;14.80;70.50;;;;;;5027455;28;20072;-65
2023/04/15 11:00:52;;;;;;;5.47;3.28;;;14.90;69.00;;;;;;5023997;28;20425;-65
2023/04/15 11:03:37;;;;;;;4.35;3.30;;;14.80;68.30;;;;;;5011667;28;20029;-66
2023/04/15 11:06:03;;;;;;;2.90;2.63;;;14.80;70.60;;;;;;5015513;28;20047;-64
2023/04/15 11:08:55;;;;;;;4.68;3.80;;;14.90;73.40;;;;;;5030770;28;20025;-66
2023/04/15 11:11:21;;;;;;;6.40;4.25;;;14.90;73.00;;;;;;5032173;28;20048;-66
2023/04/15 11:13:49;;;;;;;4.53;2.97;;;14.90;72.80;;;;;;5031805;28;20069;-66
2023/04/15 11:16:15;;;;;;;4.18;2.13;;;14.90;69.80;;;;;;5029062;28;20596;-65
2023/04/15 11:18:40;;;;;;;4.68;2.60;;;14.90;68.00;;;;;;5028418;28;20022;-66
2023/04/15 11:21:08;;;;;;;3.90;3.40;;;14.90;67.80;;;;;;5023892;28;20029;-65
2023/04/15 11:23:38;;;;;;;4.28;3.38;;;14.90;68.60;;;;;;5027742;28;20136;-66
2023/04/15 11:26:08;;;;;;;4.75;3.50;;;14.90;69.10;;;;;;5019079;28;20075;-66
2023/04/15 11:28:35;;;;;;;5.53;3.83;;;15.00;69.50;;;;;;5013694;28;20013;-66
2023/04/15 11:31:12;;;;;;;5.00;2.80;;;15.00;72.40;;;;;;5012295;28;20053;-66
2023/04/15 11:33:45;;;;;;;5.75;4.10;;;15.20;74.40;;;;;;5011280;28;20025;-66
2023/04/15 11:36:11;;;;;;;3.85;2.60;;;15.20;72.80;;;;;;5014852;28;20025;-65
2023/04/15 11:38:41;;;;;;;5.78;2.67;;;15.20;72.80;;;;;;5018756;28;20025;-67
2023/04/15 11:41:06;;;;;;;4.05;3.28;;;15.20;69.60;;;;;;5011361;28;20033;-66
2023/04/15 11:43:34;;;;;;;4.88;2.85;;;15.10;68.30;;;;;;5020007;28;20038;-66
2023/04/15 11:46:01;;;;;;;2.50;2.00;;;15.10;67.70;;;;;;5030251;28;20463;-65
2023/04/15 11:48:33;;;;;;;3.40;2.83;;;15.10;66.70;;;;;;5031945;28;20021;-65
2023/04/15 11:51:04;;;;;;;2.17;1.73;;;15.10;65.10;;;;;;5031491;28;20018;-65
2023/04/15 11:53:49;;;;;;;4.63;2.90;;;15.20;70.30;;;;;;5032151;28;20035;-66
2023/04/15 11:56:17;;;;;;;4.07;2.42;;;15.20;67.90;;;;;;5033268;28;20052;-65
2023/04/15 11:58:45;;;;;;;3.20;2.17;;;15.30;67.60;;;;;;5036000;28;20057;-66
2023/04/15 12:01:11;;;;;;;3.08;1.92;;;15.40;69.00;;;;;;5035081;28;20030;-64
2023/04/15 12:03:42;;;;;;;5.68;2.67;;;15.40;67.50;;;;;;5035721;28;20021;-65
2023/04/15 12:06:16;;;;;;;4.47;3.17;;;15.40;67.10;;;;;;5035656;28;20118;-65
2023/04/15 12:09:06;;;;;;;4.75;3.92;;;15.40;68.90;;;;;;5035498;28;20071;-66
2023/04/15 12:11:46;;;;;;;4.85;2.92;;;15.40;70.30;;;;;;5035149;28;20045;-65
2023/04/15 12:14:18;;;;;;;7.05;4.35;;;15.30;72.10;;;;;;5035463;28;20026;-66
2023/04/15 12:16:55;;;;;;;6.97;4.07;;;15.20;73.70;;;;;;5035435;28;20064;-66
2023/04/15 12:19:26;;;;;;;7.55;4.60;;;15.30;73.60;;;;;;5035341;28;20049;-66
2023/04/15 12:21:57;;;;;;;5.50;3.80;;;15.30;73.40;;;;;;5034221;28;20025;-66
2023/04/15 12:24:23;;;;;;;5.18;3.42;;;15.30;73.10;;;;;;5034978;28;20431;-66
2023/04/15 12:26:53;;;;;;;4.32;2.83;;;15.30;74.40;;;;;;5034350;28;20061;-66
2023/04/15 12:29:23;;;;;;;6.20;3.53;;;15.30;74.00;;;;;;5035198;28;20108;-67
2023/04/15 12:31:51;;;;;;;6.35;2.40;;;15.40;71.70;;;;;;5034782;28;20095;-65
2023/04/15 12:34:17;;;;;;;2.72;2.10;;;15.40;72.20;;;;;;5035071;28;20071;-67
2023/04/15 12:36:43;;;;;;;4.47;2.10;;;15.40;69.70;;;;;;5033995;28;20037;-66
2023/04/15 12:39:09;;;;;;;3.38;2.38;;;15.40;68.70;;;;;;5034658;28;20013;-66
2023/04/15 12:41:35;;;;;;;2.65;2.05;;;15.30;68.50;;;;;;5034497;28;20088;-66
2023/04/15 12:44:00;;;;;;;6.18;2.97;;;15.30;70.50;;;;;;5035230;28;20494;-66